Time;durP1;ratioP1;P1;durP2;ratioP2;P2;SDS_P1;SDS_P2;PMS_P1;PMS_P2;Temp;Humidity;BMP_temperature;BMP_pressure;BME280_temperature;BME280_humidity;BME280_pressure;Samples;Min_cycle;Max_cycle;Signal;HPM_P1;HPM_P2
2022/05/28 00:02:06;;;;;;;10.45;1.60;;;11.40;99.90;;;;;;5049845;28;20048;-82
2022/05/28 00:04:31;;;;;;;14.80;2.33;;;11.30;99.90;;;;;;5050093;28;20112;-81
2022/05/28 00:06:57;;;;;;;13.25;1.65;;;11.20;99.90;;;;;;5049965;28;20094;-82
2022/05/28 00:09:23;;;;;;;10.05;2.20;;;11.20;99.90;;;;;;5050225;28;20039;-83
2022/05/28 00:11:48;;;;;;;11.55;1.30;;;11.20;99.90;;;;;;5048034;28;20530;-83
2022/05/28 00:14:14;;;;;;;12.98;2.00;;;11.10;99.90;;;;;;5049476;28;20055;-81
2022/05/28 00:16:43;;;;;;;17.85;1.98;;;11.10;99.90;;;;;;5047855;28;20098;-81
2022/05/28 00:19:09;;;;;;;11.93;1.63;;;11.10;99.90;;;;;;5049271;28;20037;-82
2022/05/28 00:21:35;;;;;;;13.68;1.63;;;11.20;99.90;;;;;;5045478;28;20124;-81
2022/05/28 00:24:01;;;;;;;11.20;2.20;;;11.00;99.90;;;;;;5049129;28;20421;-81
2022/05/28 00:26:27;;;;;;;12.23;2.00;;;10.90;99.90;;;;;;5047543;28;20041;-81
2022/05/28 00:28:53;;;;;;;8.38;1.60;;;10.90;99.90;;;;;;5045767;28;20119;-81
2022/05/28 00:31:19;;;;;;;14.10;1.77;;;10.80;99.90;;;;;;5050737;28;20048;-81
2022/05/28 00:33:54;;;;;;;11.13;1.80;;;10.80;99.90;;;;;;5046961;28;20480;-82
2022/05/28 00:36:20;;;;;;;10.43;1.80;;;10.70;99.90;;;;;;5049548;28;20431;-81
2022/05/28 00:38:45;;;;;;;13.30;1.90;;;10.70;99.90;;;;;;5054019;28;20182;-81
2022/05/28 00:41:12;;;;;;;8.93;1.70;;;10.80;99.90;;;;;;5047999;28;20106;-81
2022/05/28 00:43:40;;;;;;;13.23;2.20;;;10.70;99.90;;;;;;5048664;28;20085;-81
2022/05/28 00:46:08;;;;;;;15.73;1.70;;;10.70;99.90;;;;;;5048208;28;20380;-81
2022/05/28 00:48:38;;;;;;;14.50;2.08;;;10.70;99.90;;;;;;5047876;28;20085;-82
2022/05/28 00:51:11;;;;;;;12.70;2.20;;;10.70;99.90;;;;;;5050120;28;20040;-80
2022/05/28 00:53:36;;;;;;;12.00;1.85;;;10.70;99.90;;;;;;5047923;28;20052;-81
2022/05/28 00:56:04;;;;;;;12.55;1.63;;;10.70;99.90;;;;;;5044259;28;20079;-80
2022/05/28 00:58:30;;;;;;;7.93;1.45;;;10.60;99.90;;;;;;5049567;28;20073;-81
2022/05/28 01:00:57;;;;;;;9.45;2.05;;;10.60;99.90;;;;;;5048530;28;20048;-82
2022/05/28 01:03:53;;;;;;;8.55;1.77;;;10.60;99.90;;;;;;5049839;28;20052;-82
2022/05/28 01:06:29;;;;;;;11.32;1.73;;;10.60;99.90;;;;;;5048242;28;20123;-82
2022/05/28 01:09:02;;;;;;;9.90;2.20;;;10.60;99.90;;;;;;5048106;28;20059;-80
2022/05/28 01:11:44;;;;;;;14.88;1.90;;;10.60;99.90;;;;;;5049012;28;20049;-82
2022/05/28 01:14:26;;;;;;;7.13;1.70;;;10.60;99.90;;;;;;5046744;28;20186;-83
2022/05/28 01:16:56;;;;;;;9.40;1.80;;;10.60;99.90;;;;;;5045169;28;20045;-81
2022/05/28 01:19:47;;;;;;;10.10;2.10;;;10.60;99.90;;;;;;5053257;28;20066;-81
2022/05/28 01:22:37;;;;;;;9.70;1.50;;;10.60;99.90;;;;;;5046235;28;20354;-82
2022/05/28 01:25:28;;;;;;;9.80;1.73;;;10.60;99.90;;;;;;5049191;28;20436;-80
2022/05/28 01:28:01;;;;;;;12.77;1.40;;;10.60;99.90;;;;;;5019125;28;20059;-81
2022/05/28 01:30:28;;;;;;;13.00;2.95;;;10.60;99.90;;;;;;5048529;28;20541;-81
2022/05/28 01:32:56;;;;;;;12.52;2.03;;;10.60;99.90;;;;;;5047974;28;20049;-81
2022/05/28 01:35:23;;;;;;;11.30;1.75;;;10.60;99.90;;;;;;5046749;28;20516;-81
2022/05/28 01:37:52;;;;;;;13.10;1.85;;;10.60;99.90;;;;;;5047472;28;20051;-81
2022/05/28 01:40:20;;;;;;;10.38;2.13;;;10.60;99.90;;;;;;5043743;28;20075;-81
2022/05/28 01:42:51;;;;;;;8.48;2.22;;;10.60;99.90;;;;;;5044823;28;20460;-81
2022/05/28 01:45:20;;;;;;;15.15;2.03;;;10.60;99.90;;;;;;5048187;28;20369;-82
2022/05/28 01:47:47;;;;;;;14.82;2.25;;;11.10;99.90;;;;;;5047531;28;20047;-82
2022/05/28 01:50:18;;;;;;;11.52;1.83;;;10.60;99.90;;;;;;5047224;28;20041;-82
2022/05/28 01:52:44;;;;;;;10.73;1.53;;;10.60;99.90;;;;;;5045232;28;20056;-81
2022/05/28 01:55:13;;;;;;;12.80;2.75;;;10.60;99.90;;;;;;5048120;28;20053;-82
2022/05/28 01:57:39;;;;;;;10.18;1.95;;;10.60;99.90;;;;;;5047723;28;20049;-82
2022/05/28 02:00:09;;;;;;;13.90;2.75;;;10.60;99.90;;;;;;5045970;28;20060;-80
2022/05/28 02:02:35;;;;;;;10.05;1.55;;;10.60;99.90;;;;;;5048710;28;20037;-82
2022/05/28 02:05:01;;;;;;;8.95;1.88;;;10.60;99.90;;;;;;5047631;28;20045;-80
2022/05/28 02:07:27;;;;;;;18.13;2.47;;;10.60;99.90;;;;;;5045169;28;20045;-81
2022/05/28 02:10:03;;;;;;;15.40;2.30;;;10.60;99.90;;;;;;5044117;28;20037;-81
2022/05/28 02:12:33;;;;;;;11.93;2.20;;;10.60;99.90;;;;;;5046165;28;20045;-80
2022/05/28 02:15:08;;;;;;;13.07;1.83;;;10.60;99.90;;;;;;5048103;28;20124;-80
2022/05/28 02:17:52;;;;;;;16.10;2.60;;;10.60;99.90;;;;;;5047724;28;20045;-82
2022/05/28 02:20:34;;;;;;;13.05;2.20;;;10.60;99.90;;;;;;5048296;28;20065;-82
2022/05/28 02:23:20;;;;;;;12.45;2.28;;;10.50;99.90;;;;;;5046155;28;20401;-82
2022/05/28 02:26:11;;;;;;;20.70;2.45;;;10.50;99.90;;;;;;5059485;28;20436;-81
2022/05/28 02:28:39;;;;;;;14.53;2.37;;;10.50;99.90;;;;;;5041166;28;20041;-81
2022/05/28 02:31:23;;;;;;;12.43;2.22;;;10.50;99.90;;;;;;5046431;28;20049;-81
2022/05/28 02:33:49;;;;;;;13.00;1.90;;;10.50;99.90;;;;;;5045285;28;20045;-83
2022/05/28 02:36:16;;;;;;;8.13;1.92;;;10.50;99.90;;;;;;5046647;28;20411;-80
2022/05/28 02:38:45;;;;;;;12.15;2.40;;;10.50;99.90;;;;;;5047616;28;20175;-81
2022/05/28 02:41:11;;;;;;;20.48;2.75;;;10.50;99.90;;;;;;5047768;28;20044;-81
2022/05/28 02:43:37;;;;;;;17.23;3.15;;;10.50;99.90;;;;;;5050934;28;20342;-81
2022/05/28 02:46:04;;;;;;;17.10;2.63;;;10.50;99.90;;;;;;5039505;28;20459;-81
2022/05/28 02:48:30;;;;;;;16.15;2.75;;;10.50;99.90;;;;;;5049444;28;20048;-82
2022/05/28 02:51:07;;;;;;;20.33;2.78;;;10.50;99.90;;;;;;5046359;28;20052;-81
2022/05/28 02:53:33;;;;;;;12.48;2.55;;;10.60;99.90;;;;;;5045023;28;20248;-82
2022/05/28 02:55:59;;;;;;;10.15;2.20;;;10.60;99.90;;;;;;5045720;28;20167;-81
2022/05/28 02:58:24;;;;;;;12.77;1.90;;;10.60;99.90;;;;;;5047721;28;20048;-81
2022/05/28 03:00:50;;;;;;;19.88;2.65;;;10.60;99.90;;;;;;5044617;28;20048;-81
2022/05/28 03:03:19;;;;;;;18.27;2.50;;;10.60;99.90;;;;;;5043584;28;20477;-82
2022/05/28 03:05:50;;;;;;;16.75;2.83;;;10.60;99.90;;;;;;5048622;28;20374;-81
2022/05/28 03:08:16;;;;;;;14.93;2.00;;;10.60;99.90;;;;;;5045204;28;20044;-82
2022/05/28 03:10:42;;;;;;;14.27;2.28;;;10.60;99.90;;;;;;5040479;28;20037;-81
2022/05/28 03:13:08;;;;;;;17.40;2.80;;;10.60;99.90;;;;;;5046975;28;20055;-80
2022/05/28 03:15:34;;;;;;;13.70;2.42;;;10.50;99.90;;;;;;5045550;28;20076;-82
2022/05/28 03:18:00;;;;;;;16.23;2.50;;;10.60;99.90;;;;;;5046972;28;20430;-81
2022/05/28 03:20:27;;;;;;;16.40;3.70;;;10.60;99.90;;;;;;5046102;28;20124;-80
2022/05/28 03:22:52;;;;;;;17.00;2.85;;;10.60;99.90;;;;;;5044203;28;20763;-81
2022/05/28 03:25:18;;;;;;;16.27;2.75;;;10.60;99.90;;;;;;5046697;28;20059;-80
2022/05/28 03:27:44;;;;;;;15.63;3.22;;;10.50;99.90;;;;;;5046886;28;20040;-82
2022/05/28 03:30:10;;;;;;;20.02;2.53;;;10.50;99.90;;;;;;5040692;28;20049;-82
2022/05/28 03:32:36;;;;;;;17.25;2.45;;;10.50;99.90;;;;;;5046175;28;20040;-80
2022/05/28 03:35:02;;;;;;;11.95;2.35;;;10.50;99.90;;;;;;5045087;28;20037;-81
2022/05/28 03:37:27;;;;;;;18.48;3.00;;;10.50;99.90;;;;;;5047279;28;20044;-81
2022/05/28 03:39:53;;;;;;;16.00;2.70;;;10.50;99.90;;;;;;5044658;28;20453;-82
2022/05/28 03:42:25;;;;;;;12.80;2.80;;;10.50;99.90;;;;;;5049680;28;20072;-81
2022/05/28 03:44:50;;;;;;;14.93;2.50;;;10.50;99.90;;;;;;5048755;28;20051;-81
2022/05/28 03:47:16;;;;;;;11.23;2.70;;;10.50;99.90;;;;;;5046151;28;20049;-81
2022/05/28 03:49:43;;;;;;;18.50;2.70;;;10.50;99.90;;;;;;5049684;28;20254;-82
2022/05/28 03:52:09;;;;;;;32.40;4.07;;;10.50;99.90;;;;;;5049719;28;20049;-80
2022/05/28 03:54:35;;;;;;;14.00;2.83;;;10.50;99.90;;;;;;5049733;28;20055;-82
2022/05/28 03:57:05;;;;;;;15.07;2.22;;;10.50;99.90;;;;;;5048031;28;20037;-80
2022/05/28 03:59:33;;;;;;;16.20;2.70;;;10.50;99.90;;;;;;5045109;28;20033;-80
2022/05/28 04:01:58;;;;;;;17.88;2.70;;;10.50;99.90;;;;;;5054381;28;20131;-79
2022/05/28 04:04:24;;;;;;;10.48;2.05;;;10.50;99.90;;;;;;5048874;28;20044;-81
2022/05/28 04:06:50;;;;;;;15.10;2.58;;;10.50;99.90;;;;;;5050824;28;20040;-82
2022/05/28 04:09:15;;;;;;;20.45;2.95;;;10.50;99.90;;;;;;5052541;28;20053;-82
2022/05/28 04:11:41;;;;;;;11.20;2.33;;;10.50;99.90;;;;;;5047430;28;20389;-82
2022/05/28 04:14:06;;;;;;;13.63;2.33;;;10.50;99.90;;;;;;5050538;28;20033;-81
2022/05/28 04:16:33;;;;;;;30.88;2.88;;;10.50;99.90;;;;;;5050720;28;20152;-82
2022/05/28 04:18:58;;;;;;;15.32;2.95;;;10.50;99.90;;;;;;5046985;28;20116;-83
2022/05/28 04:21:24;;;;;;;13.15;2.60;;;10.50;99.90;;;;;;5049516;28;20124;-82
2022/05/28 04:23:49;;;;;;;21.77;2.83;;;10.50;99.90;;;;;;5043173;28;20041;-82
2022/05/28 04:26:16;;;;;;;13.57;2.60;;;10.60;99.90;;;;;;5049777;28;20102;-82
2022/05/28 04:28:41;;;;;;;20.48;3.35;;;10.60;99.90;;;;;;5044037;28;20076;-81
2022/05/28 04:31:07;;;;;;;8.57;2.55;;;10.70;99.90;;;;;;5049682;28;20073;-82
2022/05/28 04:33:32;;;;;;;13.60;2.35;;;10.70;99.90;;;;;;5050385;28;20116;-81
2022/05/28 04:35:58;;;;;;;19.30;3.63;;;10.70;99.90;;;;;;5050162;28;20487;-81
2022/05/28 04:38:24;;;;;;;12.02;2.22;;;10.80;99.90;;;;;;5046416;28;20520;-82
2022/05/28 04:40:50;;;;;;;14.02;2.78;;;10.80;99.90;;;;;;5048321;28;20503;-81
2022/05/28 04:43:16;;;;;;;21.60;2.50;;;10.80;99.90;;;;;;5050298;28;20055;-81
2022/05/28 04:45:45;;;;;;;17.35;2.95;;;10.90;99.90;;;;;;5047840;28;20362;-80
2022/05/28 04:48:14;;;;;;;21.70;4.18;;;10.90;99.90;;;;;;5049449;28;20132;-80
2022/05/28 04:50:43;;;;;;;20.05;3.25;;;11.00;99.90;;;;;;5050967;28;20130;-82
2022/05/28 04:53:08;;;;;;;21.10;2.92;;;11.10;99.90;;;;;;5048274;28;21509;-80
2022/05/28 04:55:39;;;;;;;17.80;2.70;;;11.10;99.90;;;;;;5051000;28;20080;-80
2022/05/28 04:58:05;;;;;;;13.43;2.30;;;11.10;99.90;;;;;;5045331;28;20092;-82
2022/05/28 05:00:33;;;;;;;17.98;2.90;;;11.20;99.90;;;;;;5048731;28;20048;-80
2022/05/28 05:02:59;;;;;;;15.50;2.92;;;11.10;99.90;;;;;;5048565;28;20150;-81
2022/05/28 05:05:24;;;;;;;20.85;2.97;;;11.20;99.90;;;;;;5049825;28;20172;-82
2022/05/28 05:07:50;;;;;;;19.27;2.70;;;11.20;99.90;;;;;;5045966;28;20044;-83
2022/05/28 05:10:16;;;;;;;17.20;4.00;;;11.20;99.90;;;;;;5049831;28;20036;-80
2022/05/28 05:12:41;;;;;;;17.13;2.28;;;11.30;99.90;;;;;;5049278;28;20253;-82
2022/05/28 05:15:07;;;;;;;14.45;3.03;;;11.30;99.90;;;;;;5047671;28;20045;-83
2022/05/28 05:17:33;;;;;;;16.38;2.53;;;11.30;99.90;;;;;;5047099;28;20423;-82
2022/05/28 05:19:59;;;;;;;17.38;2.80;;;11.40;99.90;;;;;;5049405;28;20037;-83
2022/05/28 05:22:30;;;;;;;15.88;2.45;;;11.40;99.90;;;;;;5040299;28;20121;-81
2022/05/28 05:24:56;;;;;;;12.70;2.38;;;11.50;99.90;;;;;;5045149;28;20084;-82
2022/05/28 05:27:22;;;;;;;14.18;2.88;;;11.50;99.90;;;;;;5040563;28;20381;-80
2022/05/28 05:29:47;;;;;;;18.75;3.47;;;11.60;99.90;;;;;;5048537;28;20076;-81
2022/05/28 05:32:13;;;;;;;18.02;3.67;;;11.70;99.90;;;;;;5050901;28;20041;-82
2022/05/28 05:34:39;;;;;;;14.98;3.60;;;11.70;99.90;;;;;;5047106;28;20087;-82
2022/05/28 05:37:05;;;;;;;16.08;3.63;;;11.70;99.90;;;;;;5045325;28;20076;-80
2022/05/28 05:39:31;;;;;;;19.27;3.13;;;11.80;99.90;;;;;;5049472;28;20329;-81
2022/05/28 05:41:57;;;;;;;22.63;3.65;;;11.90;99.90;;;;;;5040325;28;20500;-80
2022/05/28 05:44:22;;;;;;;17.48;3.17;;;11.80;99.90;;;;;;5046004;28;20452;-80
2022/05/28 05:46:55;;;;;;;12.38;2.85;;;11.70;99.90;;;;;;5048791;28;20037;-82
2022/05/28 05:49:20;;;;;;;15.20;2.85;;;11.70;99.90;;;;;;5047323;28;20045;-80
2022/05/28 05:51:46;;;;;;;21.02;3.05;;;11.70;99.90;;;;;;5044825;28;20041;-82
2022/05/28 05:54:14;;;;;;;16.90;2.67;;;11.60;99.90;;;;;;5041008;28;20069;-81
2022/05/28 05:56:39;;;;;;;12.38;2.38;;;11.70;99.90;;;;;;5046531;28;20045;-80
2022/05/28 05:59:05;;;;;;;11.38;2.45;;;11.60;99.90;;;;;;5048949;28;20485;-81
2022/05/28 06:01:31;;;;;;;15.35;2.95;;;11.70;99.90;;;;;;5046565;28;20614;-80
2022/05/28 06:03:57;;;;;;;16.85;4.32;;;11.70;99.90;;;;;;5046135;28;20052;-80
2022/05/28 06:06:23;;;;;;;14.30;3.55;;;11.80;99.90;;;;;;5047412;28;20040;-80
2022/05/28 06:08:49;;;;;;;21.83;3.00;;;11.80;99.90;;;;;;5046910;28;20061;-80
2022/05/28 06:11:17;;;;;;;18.17;3.78;;;11.80;99.90;;;;;;5046046;28;20048;-80
2022/05/28 06:13:43;;;;;;;25.10;3.40;;;11.80;99.90;;;;;;5049444;28;20048;-80
2022/05/28 06:16:15;;;;;;;17.67;2.80;;;11.90;99.90;;;;;;5047843;28;20065;-80
2022/05/28 06:18:41;;;;;;;12.15;3.35;;;11.90;99.90;;;;;;5043451;28;20095;-82
2022/05/28 06:21:07;;;;;;;18.73;3.08;;;11.90;99.90;;;;;;5051707;28;20051;-81
2022/05/28 06:23:32;;;;;;;16.55;2.47;;;12.00;99.90;;;;;;5046447;28;20041;-81
2022/05/28 06:25:58;;;;;;;14.35;3.28;;;12.10;99.90;;;;;;5045336;28;20041;-81
2022/05/28 06:28:24;;;;;;;14.15;2.83;;;12.10;99.90;;;;;;5044446;28;20473;-82
2022/05/28 06:30:51;;;;;;;13.38;2.53;;;12.00;99.90;;;;;;5050729;28;20041;-80
2022/05/28 06:33:17;;;;;;;13.05;2.30;;;12.00;99.90;;;;;;5047880;28;20044;-80
2022/05/28 06:35:43;;;;;;;14.85;2.17;;;12.10;99.90;;;;;;5047897;28;20365;-81
2022/05/28 06:38:09;;;;;;;25.35;3.38;;;12.10;99.90;;;;;;5045471;28;20041;-80
2022/05/28 06:40:35;;;;;;;18.98;2.53;;;12.10;99.90;;;;;;5047142;28;20040;-81
2022/05/28 06:43:01;;;;;;;13.77;2.20;;;12.20;99.90;;;;;;5046947;28;20052;-81
2022/05/28 06:45:27;;;;;;;20.38;3.22;;;12.30;99.90;;;;;;5047064;28;20071;-80
2022/05/28 06:47:52;;;;;;;14.38;2.40;;;12.30;99.90;;;;;;5046552;28;20049;-81
2022/05/28 06:53:09;;;;;;;16.35;3.05;;;12.40;99.90;;;;;;5039863;28;20068;-78
2022/05/28 06:55:38;;;;;;;22.80;3.05;;;12.50;99.90;;;;;;5080834;28;20091;-81
2022/05/28 06:58:08;;;;;;;8.82;2.33;;;12.50;99.90;;;;;;5050343;28;20053;-81
2022/05/28 07:00:35;;;;;;;12.95;2.50;;;12.60;99.90;;;;;;5042061;28;20041;-80
2022/05/28 07:03:02;;;;;;;11.15;2.47;;;12.60;99.90;;;;;;5046670;28;20076;-79
2022/05/28 07:05:28;;;;;;;15.50;2.40;;;12.60;99.90;;;;;;5043367;28;20037;-78
2022/05/28 07:07:55;;;;;;;19.13;3.38;;;12.70;99.90;;;;;;5045874;28;20451;-80
2022/05/28 07:10:24;;;;;;;18.08;2.95;;;12.70;99.90;;;;;;5048103;28;20742;-79
2022/05/28 07:12:50;;;;;;;21.23;2.70;;;12.70;99.90;;;;;;5047743;28;20175;-80
2022/05/28 07:15:16;;;;;;;20.27;2.85;;;12.70;99.90;;;;;;5051143;28;20080;-79
2022/05/28 07:17:41;;;;;;;16.20;2.40;;;12.60;99.90;;;;;;5051369;28;20068;-79
2022/05/28 07:20:09;;;;;;;20.40;2.88;;;12.70;99.90;;;;;;5050625;28;20045;-79
2022/05/28 07:22:35;;;;;;;12.85;2.65;;;12.70;99.90;;;;;;5049378;28;20059;-79
2022/05/28 07:25:01;;;;;;;16.05;2.38;;;12.70;99.90;;;;;;5051736;28;20170;-80
2022/05/28 07:27:30;;;;;;;19.58;2.30;;;12.70;99.90;;;;;;5050712;28;20068;-79
2022/05/28 07:29:56;;;;;;;16.95;3.75;;;12.70;99.90;;;;;;5057818;28;20500;-78
2022/05/28 07:32:29;;;;;;;14.85;2.70;;;12.80;99.90;;;;;;5051369;28;20033;-79
2022/05/28 07:34:56;;;;;;;18.02;3.33;;;12.80;99.90;;;;;;5050526;28;20049;-80
2022/05/28 07:37:21;;;;;;;10.75;1.88;;;12.60;99.90;;;;;;5053527;28;20463;-79
2022/05/28 07:39:47;;;;;;;23.63;2.88;;;12.60;99.90;;;;;;5049473;28;20037;-79
2022/05/28 07:42:13;;;;;;;25.52;3.50;;;12.50;99.90;;;;;;5049637;28;20045;-79
2022/05/28 07:44:39;;;;;;;17.58;2.88;;;12.50;99.90;;;;;;5051000;28;20067;-79
2022/05/28 07:47:06;;;;;;;16.30;3.15;;;12.60;99.90;;;;;;5041244;28;20443;-79
2022/05/28 07:49:34;;;;;;;19.58;3.00;;;12.70;99.90;;;;;;5043182;28;20133;-78
2022/05/28 07:51:59;;;;;;;22.95;4.20;;;12.70;99.90;;;;;;5046239;28;20067;-79
2022/05/28 07:54:25;;;;;;;23.25;3.40;;;12.70;99.90;;;;;;5048383;28;20049;-80
2022/05/28 07:56:51;;;;;;;15.90;2.90;;;12.70;99.90;;;;;;5049303;28;20129;-80
2022/05/28 07:59:16;;;;;;;17.05;2.53;;;12.80;99.90;;;;;;5051819;28;20483;-80
2022/05/28 08:01:42;;;;;;;20.88;2.95;;;12.80;99.90;;;;;;5039313;28;20090;-78
2022/05/28 08:04:09;;;;;;;17.77;3.05;;;12.80;99.90;;;;;;5051158;28;20061;-79
2022/05/28 08:06:36;;;;;;;18.38;3.53;;;12.90;99.90;;;;;;5047860;28;20499;-79
2022/05/28 08:09:03;;;;;;;21.73;3.75;;;12.90;99.90;;;;;;5050005;28;20037;-80
2022/05/28 08:11:29;;;;;;;30.15;3.20;;;13.00;99.90;;;;;;5044617;28;20376;-79
2022/05/28 08:13:55;;;;;;;17.80;3.20;;;13.00;99.90;;;;;;5043813;28;20116;-78
2022/05/28 08:16:21;;;;;;;19.00;2.72;;;13.10;99.90;;;;;;5030448;28;20064;-78
2022/05/28 08:18:47;;;;;;;18.27;2.55;;;13.10;99.90;;;;;;5045549;28;20041;-79
2022/05/28 08:23:58;;;;;;;13.52;2.70;;;13.10;99.90;;;;;;5038745;28;20041;-77
2022/05/28 08:26:24;;;;;;;12.73;2.85;;;13.10;99.90;;;;;;5040425;28;20049;-79
2022/05/28 08:28:51;;;;;;;14.98;2.58;;;13.10;99.90;;;;;;5048311;28;20135;-78
2022/05/28 08:31:18;;;;;;;15.15;2.40;;;13.20;99.90;;;;;;5048752;28;20044;-78
2022/05/28 08:33:44;;;;;;;19.25;2.47;;;13.20;99.90;;;;;;5050591;28;20423;-77
2022/05/28 08:36:13;;;;;;;19.15;3.05;;;13.30;99.90;;;;;;5050281;28;20533;-78
2022/05/28 08:38:39;;;;;;;19.17;5.13;;;13.30;99.90;;;;;;5049851;28;20045;-79
2022/05/28 08:41:15;;;;;;;12.45;2.75;;;13.50;99.90;;;;;;5045915;28;20060;-79
2022/05/28 08:44:04;;;;;;;16.75;2.72;;;13.40;99.90;;;;;;5075883;28;20135;-78
2022/05/28 08:46:33;;;;;;;18.83;2.65;;;13.40;99.90;;;;;;5038668;28;20037;-79
2022/05/28 08:49:00;;;;;;;10.32;2.58;;;13.40;99.90;;;;;;5043308;28;20136;-78
2022/05/28 08:51:46;;;;;;;16.73;2.38;;;13.50;99.90;;;;;;5041453;28;20065;-78
2022/05/28 08:54:56;;;;;;;16.45;2.67;;;13.60;99.90;;;;;;5045393;28;20099;-79
2022/05/28 08:57:30;;;;;;;11.38;1.85;;;13.70;99.90;;;;;;5048664;28;20048;-80
2022/05/28 09:00:04;;;;;;;16.85;3.75;;;13.70;99.90;;;;;;5046384;28;20049;-79
2022/05/28 09:02:37;;;;;;;13.55;2.30;;;13.60;99.90;;;;;;5078336;28;20056;-78
2022/05/28 09:05:04;;;;;;;11.85;2.17;;;13.60;99.90;;;;;;5045507;28;20045;-78
2022/05/28 09:07:33;;;;;;;16.00;2.60;;;13.60;99.90;;;;;;5044656;28;20045;-77
2022/05/28 09:09:59;;;;;;;15.52;2.38;;;13.50;99.90;;;;;;5047967;28;20115;-77
2022/05/28 09:12:31;;;;;;;13.55;2.53;;;13.40;99.90;;;;;;5047863;28;20158;-79
2022/05/28 09:14:57;;;;;;;17.88;2.85;;;13.30;99.90;;;;;;5034346;28;20049;-78
2022/05/28 09:17:34;;;;;;;15.43;2.63;;;13.30;99.90;;;;;;5046081;28;20128;-78
2022/05/28 09:20:14;;;;;;;15.57;3.25;;;13.30;99.90;;;;;;5028582;28;20049;-78
2022/05/28 09:22:39;;;;;;;16.10;2.63;;;13.40;99.90;;;;;;5041377;28;20128;-79
2022/05/28 09:25:06;;;;;;;16.15;2.90;;;13.40;99.90;;;;;;5050592;28;20508;-78
2022/05/28 09:27:49;;;;;;;19.25;3.17;;;13.50;99.90;;;;;;5046636;28;20056;-80
2022/05/28 09:30:33;;;;;;;20.05;3.17;;;13.50;99.90;;;;;;5046824;28;20080;-80
2022/05/28 09:33:21;;;;;;;16.83;2.63;;;13.60;99.90;;;;;;5042032;28;20052;-79
2022/05/28 09:36:08;;;;;;;15.88;2.42;;;13.60;99.90;;;;;;5040835;28;20075;-78
2022/05/28 09:38:40;;;;;;;18.60;3.22;;;13.70;99.90;;;;;;5045890;28;20083;-78
2022/05/28 09:41:31;;;;;;;14.35;3.25;;;13.60;99.90;;;;;;5043229;28;20049;-79
2022/05/28 09:44:14;;;;;;;14.25;2.58;;;13.60;99.90;;;;;;5054109;28;20131;-77
2022/05/28 09:46:42;;;;;;;13.90;2.47;;;13.70;99.90;;;;;;5047729;28;20408;-79
2022/05/28 09:49:11;;;;;;;13.30;2.20;;;13.90;99.90;;;;;;5035735;28;20127;-79
2022/05/28 09:51:37;;;;;;;17.27;3.45;;;13.70;99.90;;;;;;5048772;28;20053;-78
2022/05/28 09:54:18;;;;;;;9.55;2.08;;;13.80;99.90;;;;;;5049521;28;20082;-78
2022/05/28 09:56:55;;;;;;;13.07;1.67;;;13.90;99.90;;;;;;5036246;28;20497;-80
2022/05/28 09:59:35;;;;;;;8.50;2.22;;;13.90;99.90;;;;;;5075510;28;20044;-78
2022/05/28 10:02:17;;;;;;;15.40;2.42;;;13.90;99.90;;;;;;5040253;28;20045;-78
2022/05/28 10:04:57;;;;;;;17.30;2.08;;;13.90;99.90;;;;;;5049639;28;20118;-80
2022/05/28 10:07:33;;;;;;;14.93;2.25;;;13.90;99.90;;;;;;5046358;28;20079;-81
2022/05/28 10:09:59;;;;;;;13.98;2.22;;;14.00;99.90;;;;;;5048198;28;20051;-80
2022/05/28 10:12:31;;;;;;;11.75;2.50;;;14.00;99.90;;;;;;5046355;28;20165;-80
2022/05/28 10:15:09;;;;;;;;;;;14.00;99.90;;;;;;5048524;28;20057;-79
2022/05/28 10:17:36;;;;;;;15.52;2.15;;;14.10;99.90;;;;;;5047103;28;20338;-79
2022/05/28 10:20:15;;;;;;;11.02;1.80;;;14.10;99.90;;;;;;5047699;28;20045;-80
2022/05/28 10:22:41;;;;;;;9.00;1.70;;;14.10;99.90;;;;;;5047882;28;20503;-79
2022/05/28 10:25:22;;;;;;;12.25;1.73;;;14.00;99.90;;;;;;5048617;28;20049;-79
2022/05/28 10:27:50;;;;;;;14.88;2.38;;;14.00;99.90;;;;;;5036690;28;20100;-79
2022/05/28 10:30:33;;;;;;;12.27;1.75;;;14.00;99.90;;;;;;5046436;28;20443;-80
2022/05/28 10:33:03;;;;;;;6.88;1.42;;;14.10;99.90;;;;;;5031250;28;20048;-79
2022/05/28 10:35:31;;;;;;;11.02;2.05;;;14.10;99.60;;;;;;5047252;28;20049;-78
2022/05/28 10:38:13;;;;;;;7.18;1.45;;;14.20;99.10;;;;;;5047167;28;20049;-78
2022/05/28 10:40:51;;;;;;;8.27;1.90;;;14.20;98.80;;;;;;5046591;28;20055;-79
2022/05/28 10:43:37;;;;;;;13.45;1.70;;;14.20;98.70;;;;;;5046748;28;20095;-78
2022/05/28 10:46:41;;;;;;;11.70;1.90;;;14.30;98.90;;;;;;5047373;28;20033;-79
2022/05/28 10:49:44;;;;;;;10.80;2.25;;;14.20;98.80;;;;;;5050634;28;20081;-77
2022/05/28 10:52:35;;;;;;;9.30;2.00;;;14.20;98.40;;;;;;5045255;28;20665;-79
2022/05/28 10:55:09;;;;;;;8.25;1.60;;;14.10;98.20;;;;;;5052576;28;20045;-79
2022/05/28 10:57:44;;;;;;;8.95;1.60;;;14.10;98.50;;;;;;5042622;28;20559;-78
2022/05/28 11:00:21;;;;;;;9.38;1.55;;;14.20;98.50;;;;;;5051301;28;20123;-78
2022/05/28 11:03:01;;;;;;;8.48;1.83;;;14.30;98.50;;;;;;5050035;28;20045;-77
2022/05/28 11:05:45;;;;;;;11.20;1.65;;;14.30;98.20;;;;;;5049682;28;20067;-78
2022/05/28 11:08:22;;;;;;;6.75;1.55;;;14.40;97.40;;;;;;5044249;28;20397;-79
2022/05/28 11:11:16;;;;;;;12.00;1.70;;;14.30;97.40;;;;;;5047370;28;20072;-79
2022/05/28 11:14:19;;;;;;;13.43;2.28;;;14.30;97.30;;;;;;5041086;28;20045;-78
2022/05/28 11:17:01;;;;;;;10.90;1.88;;;14.20;97.70;;;;;;5044446;28;20056;-79
2022/05/28 11:20:05;;;;;;;14.48;2.03;;;14.20;98.70;;;;;;5046625;28;20076;-77
2022/05/28 11:23:09;;;;;;;14.23;2.42;;;14.30;98.90;;;;;;5049689;28;20049;-78
2022/05/28 11:25:49;;;;;;;11.55;2.10;;;14.40;98.80;;;;;;4996542;28;20417;-78
2022/05/28 11:28:36;;;;;;;11.23;2.00;;;14.30;98.10;;;;;;5044505;28;20127;-77
2022/05/28 11:31:36;;;;;;;11.05;1.55;;;14.40;98.00;;;;;;5051887;28;20053;-78
2022/05/28 11:34:16;;;;;;;15.95;2.05;;;14.50;98.10;;;;;;5047650;28;20036;-79
2022/05/28 11:36:47;;;;;;;13.50;2.30;;;14.60;97.60;;;;;;5047800;28;20090;-77
2022/05/28 11:39:13;;;;;;;;;;;14.60;97.70;;;;;;5076039;28;20041;-79
2022/05/28 11:42:04;;;;;;;18.15;3.25;;;14.50;97.00;;;;;;5044362;28;19951;-77
2022/05/28 11:44:39;;;;;;;10.27;2.20;;;14.50;98.10;;;;;;5047814;28;20094;-77
2022/05/28 11:47:27;;;;;;;10.40;2.50;;;14.40;98.30;;;;;;5047979;28;20422;-79
2022/05/28 11:53:17;;;;;;;20.23;3.08;;;14.50;98.30;;;;;;5048646;28;20404;-79
2022/05/28 11:55:45;;;;;;;15.60;2.78;;;14.40;98.60;;;;;;5015463;28;20049;-79
2022/05/28 11:58:20;;;;;;;12.93;2.72;;;14.30;99.60;;;;;;5049724;28;20040;-77
2022/05/28 12:00:59;;;;;;;10.75;2.00;;;14.20;99.90;;;;;;5050711;28;20120;-77
2022/05/28 12:03:29;;;;;;;10.52;1.95;;;14.20;99.90;;;;;;5050074;28;20079;-77
2022/05/28 12:06:22;;;;;;;17.58;3.75;;;14.30;99.90;;;;;;5049116;28;20543;-79
2022/05/28 12:09:05;;;;;;;14.55;2.92;;;14.40;99.90;;;;;;5045009;28;20362;-77
2022/05/28 12:11:53;;;;;;;13.80;2.15;;;14.40;99.90;;;;;;5044218;28;20051;-77
2022/05/28 12:14:37;;;;;;;10.50;2.33;;;14.60;99.90;;;;;;5050210;28;20056;-81
2022/05/28 12:17:17;;;;;;;14.75;2.40;;;14.70;99.90;;;;;;5048258;28;20392;-80
2022/05/28 12:19:51;;;;;;;17.55;2.30;;;14.70;99.90;;;;;;5044342;28;20060;-79
2022/05/28 12:22:41;;;;;;;17.20;2.72;;;14.70;99.70;;;;;;5045498;28;20128;-79
2022/05/28 12:25:13;;;;;;;13.75;2.22;;;14.60;99.50;;;;;;5049934;28;20041;-81
2022/05/28 12:27:54;;;;;;;17.80;2.47;;;14.50;99.70;;;;;;5054417;28;20120;-79
2022/05/28 12:30:30;;;;;;;11.10;2.10;;;14.50;99.60;;;;;;5044258;28;20508;-83
2022/05/28 12:32:57;;;;;;;16.38;2.55;;;14.60;99.60;;;;;;5043234;28;20120;-82
2022/05/28 12:35:54;;;;;;;13.40;2.20;;;14.50;99.30;;;;;;5049894;28;20560;-84
2022/05/28 12:38:46;;;;;;;13.30;2.08;;;14.50;99.10;;;;;;5047476;28;20045;-83
2022/05/28 12:41:18;;;;;;;16.58;3.22;;;14.40;99.30;;;;;;5044197;28;20370;-82
2022/05/28 12:43:52;;;;;;;15.38;2.85;;;14.40;99.90;;;;;;5046378;28;20440;-84
2022/05/28 12:46:20;;;;;;;11.80;2.65;;;14.60;99.90;;;;;;5038605;28;20072;-83
2022/05/28 12:48:50;;;;;;;18.83;2.40;;;14.60;99.90;;;;;;5029207;28;20060;-83
2022/05/28 12:51:35;;;;;;;10.20;1.92;;;14.70;99.90;;;;;;5039334;28;20420;-87
2022/05/28 12:54:04;;;;;;;17.42;2.67;;;14.60;99.90;;;;;;5044524;28;20083;-84
2022/05/28 12:56:33;;;;;;;12.10;2.70;;;14.60;99.90;;;;;;5048063;28;20052;-82
2022/05/28 12:59:21;;;;;;;13.48;2.22;;;14.60;99.90;;;;;;5045117;28;20033;-83
2022/05/28 13:01:55;;;;;;;26.92;3.45;;;14.70;99.90;;;;;;5035185;28;20052;-83
2022/05/28 13:04:21;;;;;;;11.55;2.13;;;14.90;99.90;;;;;;5047447;28;20045;-82
2022/05/28 13:06:56;;;;;;;16.80;2.30;;;15.10;99.90;;;;;;5045268;28;20837;-81
2022/05/28 13:09:29;;;;;;;18.65;2.63;;;15.40;99.90;;;;;;5051273;28;20457;-83